sensor_id;sensor_type;location;lat;lon;timestamp;P1;durP1;ratioP1;P2;durP2;ratioP2
61096;SDS011;46977;50.936;6.908;2023-12-20T00:01:23;9.27;;;5.85;;
61096;SDS011;46977;50.936;6.908;2023-12-20T00:04:26;11.30;;;5.88;;
61096;SDS011;46977;50.936;6.908;2023-12-20T00:07:30;12.80;;;5.28;;
61096;SDS011;46977;50.936;6.908;2023-12-20T00:10:32;8.55;;;5.47;;
61096;SDS011;46977;50.936;6.908;2023-12-20T00:13:34;8.25;;;5.68;;
61096;SDS011;46977;50.936;6.908;2023-12-20T00:16:37;10.30;;;5.53;;
61096;SDS011;46977;50.936;6.908;2023-12-20T00:19:39;9.05;;;5.70;;
61096;SDS011;46977;50.936;6.908;2023-12-20T00:22:43;8.88;;;5.72;;
61096;SDS011;46977;50.936;6.908;2023-12-20T00:25:45;8.15;;;4.93;;
61096;SDS011;46977;50.936;6.908;2023-12-20T00:28:48;9.90;;;5.55;;
61096;SDS011;46977;50.936;6.908;2023-12-20T00:31:50;9.60;;;5.55;;
61096;SDS011;46977;50.936;6.908;2023-12-20T00:34:52;11.35;;;6.22;;
61096;SDS011;46977;50.936;6.908;2023-12-20T00:37:56;7.88;;;4.75;;
61096;SDS011;46977;50.936;6.908;2023-12-20T00:40:58;6.95;;;4.10;;
61096;SDS011;46977;50.936;6.908;2023-12-20T00:44:00;6.43;;;3.88;;
61096;SDS011;46977;50.936;6.908;2023-12-20T00:47:03;7.72;;;3.97;;
61096;SDS011;46977;50.936;6.908;2023-12-20T00:50:06;8.27;;;4.43;;
61096;SDS011;46977;50.936;6.908;2023-12-20T00:53:10;8.50;;;5.03;;
61096;SDS011;46977;50.936;6.908;2023-12-20T00:56:13;9.48;;;5.95;;
61096;SDS011;46977;50.936;6.908;2023-12-20T00:59:16;9.38;;;4.78;;
61096;SDS011;46977;50.936;6.908;2023-12-20T01:02:18;12.00;;;5.72;;
61096;SDS011;46977;50.936;6.908;2023-12-20T01:05:21;9.52;;;4.50;;
61096;SDS011;46977;50.936;6.908;2023-12-20T01:08:26;9.20;;;4.38;;
61096;SDS011;46977;50.936;6.908;2023-12-20T01:11:28;8.88;;;4.38;;
61096;SDS011;46977;50.936;6.908;2023-12-20T01:14:32;8.13;;;3.17;;
61096;SDS011;46977;50.936;6.908;2023-12-20T01:17:34;9.50;;;4.32;;
61096;SDS011;46977;50.936;6.908;2023-12-20T01:20:37;7.65;;;3.97;;
61096;SDS011;46977;50.936;6.908;2023-12-20T01:23:41;6.97;;;3.88;;
61096;SDS011;46977;50.936;6.908;2023-12-20T01:26:43;7.93;;;4.00;;
61096;SDS011;46977;50.936;6.908;2023-12-20T01:29:46;11.65;;;4.78;;
61096;SDS011;46977;50.936;6.908;2023-12-20T01:32:48;9.13;;;4.18;;
61096;SDS011;46977;50.936;6.908;2023-12-20T01:35:50;9.63;;;4.63;;
61096;SDS011;46977;50.936;6.908;2023-12-20T01:38:54;11.63;;;4.55;;
61096;SDS011;46977;50.936;6.908;2023-12-20T01:41:56;14.35;;;5.90;;
61096;SDS011;46977;50.936;6.908;2023-12-20T01:45:07;17.42;;;6.35;;
61096;SDS011;46977;50.936;6.908;2023-12-20T01:48:10;19.77;;;8.52;;
61096;SDS011;46977;50.936;6.908;2023-12-20T01:51:13;19.38;;;8.15;;
61096;SDS011;46977;50.936;6.908;2023-12-20T01:54:16;20.92;;;8.80;;
61096;SDS011;46977;50.936;6.908;2023-12-20T01:57:18;17.38;;;8.18;;
61096;SDS011;46977;50.936;6.908;2023-12-20T02:00:23;18.33;;;9.18;;
61096;SDS011;46977;50.936;6.908;2023-12-20T02:03:28;15.90;;;7.82;;
61096;SDS011;46977;50.936;6.908;2023-12-20T02:06:30;15.52;;;7.68;;
61096;SDS011;46977;50.936;6.908;2023-12-20T02:09:35;16.95;;;6.78;;
61096;SDS011;46977;50.936;6.908;2023-12-20T02:15:43;14.00;;;6.50;;
61096;SDS011;46977;50.936;6.908;2023-12-20T02:18:46;19.73;;;7.13;;
61096;SDS011;46977;50.936;6.908;2023-12-20T02:21:49;13.77;;;4.20;;
61096;SDS011;46977;50.936;6.908;2023-12-20T02:24:52;10.30;;;4.72;;
61096;SDS011;46977;50.936;6.908;2023-12-20T02:27:54;10.48;;;5.00;;
61096;SDS011;46977;50.936;6.908;2023-12-20T02:30:57;16.20;;;4.22;;
61096;SDS011;46977;50.936;6.908;2023-12-20T02:33:59;9.15;;;3.75;;
61096;SDS011;46977;50.936;6.908;2023-12-20T02:37:04;13.43;;;4.78;;
61096;SDS011;46977;50.936;6.908;2023-12-20T02:40:07;11.40;;;3.83;;
61096;SDS011;46977;50.936;6.908;2023-12-20T02:43:10;10.10;;;2.75;;
61096;SDS011;46977;50.936;6.908;2023-12-20T02:46:13;9.50;;;2.88;;
61096;SDS011;46977;50.936;6.908;2023-12-20T02:49:16;15.23;;;3.17;;
61096;SDS011;46977;50.936;6.908;2023-12-20T02:52:20;10.10;;;2.25;;
61096;SDS011;46977;50.936;6.908;2023-12-20T02:55:22;8.15;;;2.15;;
61096;SDS011;46977;50.936;6.908;2023-12-20T02:58:25;9.60;;;1.92;;
61096;SDS011;46977;50.936;6.908;2023-12-20T03:01:28;13.57;;;2.08;;
61096;SDS011;46977;50.936;6.908;2023-12-20T03:04:31;12.55;;;2.65;;
61096;SDS011;46977;50.936;6.908;2023-12-20T03:07:35;11.52;;;1.92;;
61096;SDS011;46977;50.936;6.908;2023-12-20T03:10:38;10.43;;;1.75;;
61096;SDS011;46977;50.936;6.908;2023-12-20T03:13:40;5.97;;;1.42;;
61096;SDS011;46977;50.936;6.908;2023-12-20T03:16:46;8.35;;;1.27;;
61096;SDS011;46977;50.936;6.908;2023-12-20T03:19:48;4.82;;;1.25;;
61096;SDS011;46977;50.936;6.908;2023-12-20T03:22:52;3.10;;;1.20;;
61096;SDS011;46977;50.936;6.908;2023-12-20T03:25:56;5.95;;;0.90;;
61096;SDS011;46977;50.936;6.908;2023-12-20T03:28:58;9.85;;;2.17;;
61096;SDS011;46977;50.936;6.908;2023-12-20T03:32:01;5.05;;;1.15;;
61096;SDS011;46977;50.936;6.908;2023-12-20T03:35:03;8.88;;;1.30;;
61096;SDS011;46977;50.936;6.908;2023-12-20T03:38:08;9.15;;;2.55;;
61096;SDS011;46977;50.936;6.908;2023-12-20T03:41:10;12.48;;;1.65;;
61096;SDS011;46977;50.936;6.908;2023-12-20T03:44:13;9.52;;;1.40;;
61096;SDS011;46977;50.936;6.908;2023-12-20T03:47:15;7.88;;;2.08;;
61096;SDS011;46977;50.936;6.908;2023-12-20T03:50:17;8.18;;;1.50;;
61096;SDS011;46977;50.936;6.908;2023-12-20T03:53:21;9.77;;;2.13;;
61096;SDS011;46977;50.936;6.908;2023-12-20T03:56:24;12.63;;;1.60;;
61096;SDS011;46977;50.936;6.908;2023-12-20T03:59:26;13.13;;;2.10;;
61096;SDS011;46977;50.936;6.908;2023-12-20T04:02:28;7.18;;;2.30;;
61096;SDS011;46977;50.936;6.908;2023-12-20T04:05:33;6.75;;;1.50;;
61096;SDS011;46977;50.936;6.908;2023-12-20T04:08:36;9.05;;;1.70;;
61096;SDS011;46977;50.936;6.908;2023-12-20T04:11:39;10.00;;;2.10;;
61096;SDS011;46977;50.936;6.908;2023-12-20T04:14:41;7.03;;;2.20;;
61096;SDS011;46977;50.936;6.908;2023-12-20T04:17:43;8.35;;;1.67;;
61096;SDS011;46977;50.936;6.908;2023-12-20T04:20:46;11.93;;;2.20;;
61096;SDS011;46977;50.936;6.908;2023-12-20T04:23:50;12.20;;;2.30;;
61096;SDS011;46977;50.936;6.908;2023-12-20T04:26:55;6.88;;;1.83;;
61096;SDS011;46977;50.936;6.908;2023-12-20T04:29:58;11.38;;;2.13;;
61096;SDS011;46977;50.936;6.908;2023-12-20T04:33:00;12.95;;;2.83;;
61096;SDS011;46977;50.936;6.908;2023-12-20T04:36:04;11.93;;;1.83;;
61096;SDS011;46977;50.936;6.908;2023-12-20T04:39:08;10.00;;;2.10;;
61096;SDS011;46977;50.936;6.908;2023-12-20T04:42:10;12.68;;;2.22;;
61096;SDS011;46977;50.936;6.908;2023-12-20T04:45:15;12.85;;;3.08;;
61096;SDS011;46977;50.936;6.908;2023-12-20T04:48:18;9.60;;;3.30;;
61096;SDS011;46977;50.936;6.908;2023-12-20T04:51:20;8.80;;;2.80;;
61096;SDS011;46977;50.936;6.908;2023-12-20T04:54:24;9.68;;;2.28;;
61096;SDS011;46977;50.936;6.908;2023-12-20T04:57:27;8.95;;;2.08;;
61096;SDS011;46977;50.936;6.908;2023-12-20T05:00:29;12.32;;;2.75;;
61096;SDS011;46977;50.936;6.908;2023-12-20T05:03:32;13.70;;;2.67;;
61096;SDS011;46977;50.936;6.908;2023-12-20T05:06:34;13.27;;;4.82;;
61096;SDS011;46977;50.936;6.908;2023-12-20T05:09:38;9.68;;;2.78;;
61096;SDS011;46977;50.936;6.908;2023-12-20T05:12:40;9.57;;;3.28;;
61096;SDS011;46977;50.936;6.908;2023-12-20T05:15:43;13.23;;;3.40;;
61096;SDS011;46977;50.936;6.908;2023-12-20T05:18:48;13.52;;;3.08;;
61096;SDS011;46977;50.936;6.908;2023-12-20T05:21:51;11.90;;;2.90;;
61096;SDS011;46977;50.936;6.908;2023-12-20T05:24:55;11.48;;;3.17;;
61096;SDS011;46977;50.936;6.908;2023-12-20T05:27:57;10.48;;;2.80;;
61096;SDS011;46977;50.936;6.908;2023-12-20T05:31:00;6.82;;;2.38;;
61096;SDS011;46977;50.936;6.908;2023-12-20T05:34:02;13.45;;;2.85;;
61096;SDS011;46977;50.936;6.908;2023-12-20T05:37:05;9.30;;;2.72;;
61096;SDS011;46977;50.936;6.908;2023-12-20T05:40:09;12.25;;;2.58;;
61096;SDS011;46977;50.936;6.908;2023-12-20T05:43:12;10.93;;;2.70;;
61096;SDS011;46977;50.936;6.908;2023-12-20T05:46:14;10.82;;;3.10;;
61096;SDS011;46977;50.936;6.908;2023-12-20T05:49:17;8.63;;;2.50;;
61096;SDS011;46977;50.936;6.908;2023-12-20T05:52:20;9.25;;;3.28;;
61096;SDS011;46977;50.936;6.908;2023-12-20T05:55:23;13.68;;;3.45;;
61096;SDS011;46977;50.936;6.908;2023-12-20T05:58:26;13.73;;;3.40;;
61096;SDS011;46977;50.936;6.908;2023-12-20T06:01:31;12.48;;;3.20;;
61096;SDS011;46977;50.936;6.908;2023-12-20T06:04:33;12.13;;;2.47;;
61096;SDS011;46977;50.936;6.908;2023-12-20T06:07:36;12.93;;;3.92;;
61096;SDS011;46977;50.936;6.908;2023-12-20T06:10:40;10.73;;;2.67;;
61096;SDS011;46977;50.936;6.908;2023-12-20T06:13:42;7.82;;;2.47;;
61096;SDS011;46977;50.936;6.908;2023-12-20T06:16:45;10.38;;;3.15;;
61096;SDS011;46977;50.936;6.908;2023-12-20T06:19:47;8.10;;;2.47;;
61096;SDS011;46977;50.936;6.908;2023-12-20T06:22:50;13.10;;;2.85;;
61096;SDS011;46977;50.936;6.908;2023-12-20T06:25:54;14.00;;;4.43;;
61096;SDS011;46977;50.936;6.908;2023-12-20T06:28:56;13.27;;;3.05;;
61096;SDS011;46977;50.936;6.908;2023-12-20T06:31:58;17.10;;;4.05;;
61096;SDS011;46977;50.936;6.908;2023-12-20T06:35:01;12.38;;;3.33;;
61096;SDS011;46977;50.936;6.908;2023-12-20T06:38:03;16.33;;;3.53;;
61096;SDS011;46977;50.936;6.908;2023-12-20T06:41:07;9.90;;;2.95;;
61096;SDS011;46977;50.936;6.908;2023-12-20T06:44:09;13.25;;;2.97;;
61096;SDS011;46977;50.936;6.908;2023-12-20T06:47:12;10.60;;;2.58;;
61096;SDS011;46977;50.936;6.908;2023-12-20T06:50:16;27.13;;;4.40;;
61096;SDS011;46977;50.936;6.908;2023-12-20T06:53:20;8.45;;;2.50;;
61096;SDS011;46977;50.936;6.908;2023-12-20T06:56:23;13.18;;;2.85;;
61096;SDS011;46977;50.936;6.908;2023-12-20T06:59:26;8.82;;;2.53;;
61096;SDS011;46977;50.936;6.908;2023-12-20T07:02:28;11.38;;;2.38;;
61096;SDS011;46977;50.936;6.908;2023-12-20T07:05:32;10.55;;;2.40;;
61096;SDS011;46977;50.936;6.908;2023-12-20T07:08:35;16.42;;;3.58;;
61096;SDS011;46977;50.936;6.908;2023-12-20T07:11:39;15.05;;;3.15;;
61096;SDS011;46977;50.936;6.908;2023-12-20T07:14:41;12.63;;;3.85;;
61096;SDS011;46977;50.936;6.908;2023-12-20T07:17:43;10.40;;;2.35;;
61096;SDS011;46977;50.936;6.908;2023-12-20T07:20:46;6.13;;;2.60;;
61096;SDS011;46977;50.936;6.908;2023-12-20T07:23:49;7.50;;;1.83;;
61096;SDS011;46977;50.936;6.908;2023-12-20T07:26:53;10.55;;;2.70;;
61096;SDS011;46977;50.936;6.908;2023-12-20T07:29:55;12.40;;;2.75;;
61096;SDS011;46977;50.936;6.908;2023-12-20T07:32:58;8.40;;;3.33;;
61096;SDS011;46977;50.936;6.908;2023-12-20T07:36:00;10.65;;;3.60;;
61096;SDS011;46977;50.936;6.908;2023-12-20T07:39:03;13.48;;;3.53;;
61096;SDS011;46977;50.936;6.908;2023-12-20T07:42:06;9.02;;;3.28;;
61096;SDS011;46977;50.936;6.908;2023-12-20T07:45:09;19.52;;;4.57;;
61096;SDS011;46977;50.936;6.908;2023-12-20T07:48:13;16.05;;;4.65;;
61096;SDS011;46977;50.936;6.908;2023-12-20T07:51:16;12.23;;;3.50;;
61096;SDS011;46977;50.936;6.908;2023-12-20T07:54:18;14.80;;;3.65;;
61096;SDS011;46977;50.936;6.908;2023-12-20T07:57:23;16.45;;;3.33;;
61096;SDS011;46977;50.936;6.908;2023-12-20T08:00:30;13.93;;;3.38;;
61096;SDS011;46977;50.936;6.908;2023-12-20T08:03:32;18.98;;;3.20;;
61096;SDS011;46977;50.936;6.908;2023-12-20T08:06:35;9.52;;;3.33;;
61096;SDS011;46977;50.936;6.908;2023-12-20T08:09:37;17.33;;;3.85;;
61096;SDS011;46977;50.936;6.908;2023-12-20T08:12:41;10.02;;;3.17;;
61096;SDS011;46977;50.936;6.908;2023-12-20T08:15:43;15.80;;;4.45;;
61096;SDS011;46977;50.936;6.908;2023-12-20T08:18:46;12.57;;;4.32;;
61096;SDS011;46977;50.936;6.908;2023-12-20T08:21:49;9.43;;;3.60;;
61096;SDS011;46977;50.936;6.908;2023-12-20T08:24:52;12.45;;;3.50;;
61096;SDS011;46977;50.936;6.908;2023-12-20T08:27:55;17.05;;;4.50;;
61096;SDS011;46977;50.936;6.908;2023-12-20T08:30:58;14.10;;;3.50;;
61096;SDS011;46977;50.936;6.908;2023-12-20T08:34:03;14.65;;;3.63;;
61096;SDS011;46977;50.936;6.908;2023-12-20T08:37:09;9.52;;;3.28;;
61096;SDS011;46977;50.936;6.908;2023-12-20T08:40:12;10.48;;;3.05;;
61096;SDS011;46977;50.936;6.908;2023-12-20T08:43:16;11.73;;;2.92;;
61096;SDS011;46977;50.936;6.908;2023-12-20T08:46:18;11.18;;;3.00;;
61096;SDS011;46977;50.936;6.908;2023-12-20T08:49:23;7.95;;;2.33;;
61096;SDS011;46977;50.936;6.908;2023-12-20T08:52:27;10.75;;;2.90;;
61096;SDS011;46977;50.936;6.908;2023-12-20T08:55:31;7.45;;;2.30;;
61096;SDS011;46977;50.936;6.908;2023-12-20T08:58:35;18.92;;;3.03;;
61096;SDS011;46977;50.936;6.908;2023-12-20T09:01:38;11.85;;;2.58;;
61096;SDS011;46977;50.936;6.908;2023-12-20T09:04:40;9.73;;;2.10;;
61096;SDS011;46977;50.936;6.908;2023-12-20T09:07:44;10.95;;;2.17;;
61096;SDS011;46977;50.936;6.908;2023-12-20T09:10:46;17.00;;;3.25;;
61096;SDS011;46977;50.936;6.908;2023-12-20T09:13:50;11.18;;;2.78;;
61096;SDS011;46977;50.936;6.908;2023-12-20T09:16:52;12.50;;;2.55;;
61096;SDS011;46977;50.936;6.908;2023-12-20T09:19:57;11.45;;;3.92;;
61096;SDS011;46977;50.936;6.908;2023-12-20T09:23:02;9.40;;;2.67;;
61096;SDS011;46977;50.936;6.908;2023-12-20T09:26:04;20.45;;;3.60;;
61096;SDS011;46977;50.936;6.908;2023-12-20T09:29:08;14.43;;;2.42;;
61096;SDS011;46977;50.936;6.908;2023-12-20T09:32:14;16.38;;;2.28;;
61096;SDS011;46977;50.936;6.908;2023-12-20T09:35:17;10.77;;;2.88;;
61096;SDS011;46977;50.936;6.908;2023-12-20T09:38:22;8.05;;;3.20;;
61096;SDS011;46977;50.936;6.908;2023-12-20T09:41:25;13.32;;;3.00;;
61096;SDS011;46977;50.936;6.908;2023-12-20T09:44:30;11.93;;;2.40;;
61096;SDS011;46977;50.936;6.908;2023-12-20T09:47:33;7.05;;;1.95;;
61096;SDS011;46977;50.936;6.908;2023-12-20T09:50:38;8.77;;;2.55;;
61096;SDS011;46977;50.936;6.908;2023-12-20T09:53:40;5.50;;;1.75;;
61096;SDS011;46977;50.936;6.908;2023-12-20T09:56:43;11.55;;;2.38;;
61096;SDS011;46977;50.936;6.908;2023-12-20T09:59:50;12.07;;;2.72;;
61096;SDS011;46977;50.936;6.908;2023-12-20T10:02:54;18.55;;;3.70;;
61096;SDS011;46977;50.936;6.908;2023-12-20T10:05:59;18.10;;;4.15;;
61096;SDS011;46977;50.936;6.908;2023-12-20T10:09:03;9.88;;;2.38;;
61096;SDS011;46977;50.936;6.908;2023-12-20T10:12:06;9.50;;;2.67;;
61096;SDS011;46977;50.936;6.908;2023-12-20T10:15:10;9.00;;;2.72;;
61096;SDS011;46977;50.936;6.908;2023-12-20T10:18:13;12.02;;;2.50;;
61096;SDS011;46977;50.936;6.908;2023-12-20T10:21:20;6.97;;;2.40;;
61096;SDS011;46977;50.936;6.908;2023-12-20T10:24:23;6.60;;;2.10;;
61096;SDS011;46977;50.936;6.908;2023-12-20T10:27:28;14.23;;;2.50;;
61096;SDS011;46977;50.936;6.908;2023-12-20T10:30:35;7.20;;;2.10;;
61096;SDS011;46977;50.936;6.908;2023-12-20T10:33:38;12.55;;;3.15;;
61096;SDS011;46977;50.936;6.908;2023-12-20T10:36:44;12.57;;;2.60;;
61096;SDS011;46977;50.936;6.908;2023-12-20T10:39:47;9.38;;;1.65;;
61096;SDS011;46977;50.936;6.908;2023-12-20T10:42:55;10.27;;;2.30;;
61096;SDS011;46977;50.936;6.908;2023-12-20T10:46:00;8.52;;;2.20;;
61096;SDS011;46977;50.936;6.908;2023-12-20T10:49:03;11.52;;;2.75;;
61096;SDS011;46977;50.936;6.908;2023-12-20T10:52:07;11.68;;;2.88;;
61096;SDS011;46977;50.936;6.908;2023-12-20T10:55:11;11.82;;;2.53;;
61096;SDS011;46977;50.936;6.908;2023-12-20T10:58:13;15.23;;;2.72;;
61096;SDS011;46977;50.936;6.908;2023-12-20T11:01:18;10.05;;;2.65;;
61096;SDS011;46977;50.936;6.908;2023-12-20T11:04:23;12.75;;;2.30;;
61096;SDS011;46977;50.936;6.908;2023-12-20T11:07:33;9.82;;;2.50;;
61096;SDS011;46977;50.936;6.908;2023-12-20T11:10:43;9.38;;;2.00;;
61096;SDS011;46977;50.936;6.908;2023-12-20T11:13:57;8.82;;;2.35;;
61096;SDS011;46977;50.936;6.908;2023-12-20T11:17:16;7.45;;;1.90;;
61096;SDS011;46977;50.936;6.908;2023-12-20T11:20:20;8.95;;;2.00;;
61096;SDS011;46977;50.936;6.908;2023-12-20T11:23:25;10.23;;;2.22;;
61096;SDS011;46977;50.936;6.908;2023-12-20T11:26:28;19.38;;;2.30;;
61096;SDS011;46977;50.936;6.908;2023-12-20T11:29:32;10.48;;;2.90;;
61096;SDS011;46977;50.936;6.908;2023-12-20T11:32:37;15.77;;;3.47;;
61096;SDS011;46977;50.936;6.908;2023-12-20T11:35:39;8.10;;;2.10;;
61096;SDS011;46977;50.936;6.908;2023-12-20T11:38:50;13.10;;;3.63;;
61096;SDS011;46977;50.936;6.908;2023-12-20T11:41:59;16.38;;;2.40;;
61096;SDS011;46977;50.936;6.908;2023-12-20T11:45:08;9.82;;;2.42;;
61096;SDS011;46977;50.936;6.908;2023-12-20T11:48:12;8.35;;;2.10;;
61096;SDS011;46977;50.936;6.908;2023-12-20T11:51:17;6.43;;;2.22;;
61096;SDS011;46977;50.936;6.908;2023-12-20T11:54:20;8.25;;;2.42;;
61096;SDS011;46977;50.936;6.908;2023-12-20T11:57:22;11.02;;;3.13;;
61096;SDS011;46977;50.936;6.908;2023-12-20T12:00:28;10.18;;;1.77;;
61096;SDS011;46977;50.936;6.908;2023-12-20T12:03:35;8.77;;;2.38;;
61096;SDS011;46977;50.936;6.908;2023-12-20T12:06:40;7.68;;;2.72;;
61096;SDS011;46977;50.936;6.908;2023-12-20T12:09:43;8.80;;;2.00;;
61096;SDS011;46977;50.936;6.908;2023-12-20T12:12:46;9.05;;;1.92;;
61096;SDS011;46977;50.936;6.908;2023-12-20T12:15:49;10.20;;;2.92;;
61096;SDS011;46977;50.936;6.908;2023-12-20T12:18:59;9.45;;;2.25;;
61096;SDS011;46977;50.936;6.908;2023-12-20T12:22:10;14.00;;;2.40;;
61096;SDS011;46977;50.936;6.908;2023-12-20T12:25:18;13.07;;;2.33;;
61096;SDS011;46977;50.936;6.908;2023-12-20T12:28:25;11.32;;;2.92;;
61096;SDS011;46977;50.936;6.908;2023-12-20T12:31:32;12.95;;;2.58;;
61096;SDS011;46977;50.936;6.908;2023-12-20T12:34:36;9.25;;;2.30;;
61096;SDS011;46977;50.936;6.908;2023-12-20T12:37:39;11.32;;;2.85;;
61096;SDS011;46977;50.936;6.908;2023-12-20T12:40:43;14.25;;;3.60;;
61096;SDS011;46977;50.936;6.908;2023-12-20T12:43:47;15.85;;;3.40;;
61096;SDS011;46977;50.936;6.908;2023-12-20T12:46:50;9.93;;;2.63;;
61096;SDS011;46977;50.936;6.908;2023-12-20T12:49:57;14.55;;;2.90;;
61096;SDS011;46977;50.936;6.908;2023-12-20T12:53:00;13.85;;;3.10;;
61096;SDS011;46977;50.936;6.908;2023-12-20T12:56:06;14.77;;;3.97;;
61096;SDS011;46977;50.936;6.908;2023-12-20T12:59:09;10.07;;;2.40;;
61096;SDS011;46977;50.936;6.908;2023-12-20T13:02:12;9.55;;;2.88;;
61096;SDS011;46977;50.936;6.908;2023-12-20T13:05:18;12.85;;;2.90;;
61096;SDS011;46977;50.936;6.908;2023-12-20T13:08:23;8.45;;;3.20;;
61096;SDS011;46977;50.936;6.908;2023-12-20T13:11:25;15.80;;;3.65;;
61096;SDS011;46977;50.936;6.908;2023-12-20T13:14:33;11.00;;;3.17;;
61096;SDS011;46977;50.936;6.908;2023-12-20T13:17:39;15.15;;;4.43;;
61096;SDS011;46977;50.936;6.908;2023-12-20T13:20:43;8.18;;;3.08;;
61096;SDS011;46977;50.936;6.908;2023-12-20T13:23:45;12.10;;;3.78;;
61096;SDS011;46977;50.936;6.908;2023-12-20T13:26:48;10.35;;;2.85;;
61096;SDS011;46977;50.936;6.908;2023-12-20T13:29:50;10.70;;;2.95;;
61096;SDS011;46977;50.936;6.908;2023-12-20T13:32:52;8.38;;;2.53;;
61096;SDS011;46977;50.936;6.908;2023-12-20T13:35:56;9.02;;;3.08;;
61096;SDS011;46977;50.936;6.908;2023-12-20T13:39:00;11.38;;;2.63;;
61096;SDS011;46977;50.936;6.908;2023-12-20T13:42:04;12.88;;;2.60;;
61096;SDS011;46977;50.936;6.908;2023-12-20T13:45:07;8.80;;;2.33;;
61096;SDS011;46977;50.936;6.908;2023-12-20T13:48:09;11.20;;;2.25;;
61096;SDS011;46977;50.936;6.908;2023-12-20T13:51:13;6.03;;;2.00;;
61096;SDS011;46977;50.936;6.908;2023-12-20T13:54:16;3.88;;;1.77;;
61096;SDS011;46977;50.936;6.908;2023-12-20T13:57:21;5.55;;;1.75;;
61096;SDS011;46977;50.936;6.908;2023-12-20T14:00:44;8.30;;;2.45;;
61096;SDS011;46977;50.936;6.908;2023-12-20T14:03:46;7.63;;;1.80;;
61096;SDS011;46977;50.936;6.908;2023-12-20T14:06:50;6.70;;;2.50;;
61096;SDS011;46977;50.936;6.908;2023-12-20T14:09:52;6.53;;;2.00;;
61096;SDS011;46977;50.936;6.908;2023-12-20T14:12:55;9.13;;;2.28;;
61096;SDS011;46977;50.936;6.908;2023-12-20T14:15:58;8.82;;;2.22;;
61096;SDS011;46977;50.936;6.908;2023-12-20T14:19:02;4.65;;;2.10;;
61096;SDS011;46977;50.936;6.908;2023-12-20T14:22:07;7.15;;;2.60;;
61096;SDS011;46977;50.936;6.908;2023-12-20T14:25:10;7.38;;;2.03;;
61096;SDS011;46977;50.936;6.908;2023-12-20T14:28:13;7.05;;;2.70;;
61096;SDS011;46977;50.936;6.908;2023-12-20T14:31:16;8.63;;;2.35;;
61096;SDS011;46977;50.936;6.908;2023-12-20T14:34:20;5.85;;;2.25;;
61096;SDS011;46977;50.936;6.908;2023-12-20T14:37:24;11.40;;;2.42;;
61096;SDS011;46977;50.936;6.908;2023-12-20T14:40:26;7.68;;;2.20;;
61096;SDS011;46977;50.936;6.908;2023-12-20T14:43:29;9.57;;;3.60;;
61096;SDS011;46977;50.936;6.908;2023-12-20T14:46:31;7.22;;;2.25;;
61096;SDS011;46977;50.936;6.908;2023-12-20T14:49:34;7.90;;;2.20;;
61096;SDS011;46977;50.936;6.908;2023-12-20T14:52:39;7.30;;;2.22;;
61096;SDS011;46977;50.936;6.908;2023-12-20T14:55:41;11.27;;;2.75;;
61096;SDS011;46977;50.936;6.908;2023-12-20T14:58:44;8.73;;;2.70;;
61096;SDS011;46977;50.936;6.908;2023-12-20T15:01:46;9.80;;;2.15;;
61096;SDS011;46977;50.936;6.908;2023-12-20T15:04:48;8.43;;;2.20;;
61096;SDS011;46977;50.936;6.908;2023-12-20T15:07:54;15.10;;;2.30;;
61096;SDS011;46977;50.936;6.908;2023-12-20T15:10:56;10.30;;;2.33;;
61096;SDS011;46977;50.936;6.908;2023-12-20T15:13:59;6.22;;;1.83;;
61096;SDS011;46977;50.936;6.908;2023-12-20T15:17:02;6.20;;;2.10;;
61096;SDS011;46977;50.936;6.908;2023-12-20T15:20:08;7.18;;;2.25;;
61096;SDS011;46977;50.936;6.908;2023-12-20T15:23:19;6.35;;;2.47;;
61096;SDS011;46977;50.936;6.908;2023-12-20T15:26:24;9.20;;;2.17;;
61096;SDS011;46977;50.936;6.908;2023-12-20T15:29:26;7.25;;;2.30;;
61096;SDS011;46977;50.936;6.908;2023-12-20T15:32:29;8.80;;;2.70;;
61096;SDS011;46977;50.936;6.908;2023-12-20T15:35:31;8.43;;;3.35;;
61096;SDS011;46977;50.936;6.908;2023-12-20T15:38:35;11.63;;;2.53;;
61096;SDS011;46977;50.936;6.908;2023-12-20T15:41:38;6.75;;;2.45;;
61096;SDS011;46977;50.936;6.908;2023-12-20T15:44:40;9.10;;;2.58;;
61096;SDS011;46977;50.936;6.908;2023-12-20T15:47:43;14.18;;;3.20;;
61096;SDS011;46977;50.936;6.908;2023-12-20T15:50:46;13.13;;;3.20;;
61096;SDS011;46977;50.936;6.908;2023-12-20T15:53:50;11.63;;;4.03;;
61096;SDS011;46977;50.936;6.908;2023-12-20T15:56:53;14.27;;;3.25;;
61096;SDS011;46977;50.936;6.908;2023-12-20T15:59:55;6.78;;;2.58;;
61096;SDS011;46977;50.936;6.908;2023-12-20T16:02:58;9.07;;;3.58;;
61096;SDS011;46977;50.936;6.908;2023-12-20T16:06:02;7.85;;;3.42;;
61096;SDS011;46977;50.936;6.908;2023-12-20T16:09:06;7.20;;;2.72;;
61096;SDS011;46977;50.936;6.908;2023-12-20T16:12:09;7.65;;;2.85;;
61096;SDS011;46977;50.936;6.908;2023-12-20T16:15:12;10.05;;;3.17;;
61096;SDS011;46977;50.936;6.908;2023-12-20T16:18:14;12.77;;;3.25;;
61096;SDS011;46977;50.936;6.908;2023-12-20T16:21:16;11.90;;;3.15;;
61096;SDS011;46977;50.936;6.908;2023-12-20T16:24:21;7.53;;;2.50;;
61096;SDS011;46977;50.936;6.908;2023-12-20T16:27:23;11.32;;;2.95;;
61096;SDS011;46977;50.936;6.908;2023-12-20T16:30:25;13.70;;;3.13;;
61096;SDS011;46977;50.936;6.908;2023-12-20T16:33:28;9.60;;;3.75;;
61096;SDS011;46977;50.936;6.908;2023-12-20T16:36:33;10.52;;;3.40;;
61096;SDS011;46977;50.936;6.908;2023-12-20T16:39:52;14.80;;;3.40;;
61096;SDS011;46977;50.936;6.908;2023-12-20T16:42:54;13.18;;;4.32;;
61096;SDS011;46977;50.936;6.908;2023-12-20T16:45:58;14.32;;;3.75;;
61096;SDS011;46977;50.936;6.908;2023-12-20T16:49:02;14.73;;;3.80;;
61096;SDS011;46977;50.936;6.908;2023-12-20T16:52:05;12.43;;;3.97;;
61096;SDS011;46977;50.936;6.908;2023-12-20T16:55:11;11.38;;;3.88;;
61096;SDS011;46977;50.936;6.908;2023-12-20T16:58:13;10.52;;;3.05;;
61096;SDS011;46977;50.936;6.908;2023-12-20T17:01:16;10.95;;;4.00;;
61096;SDS011;46977;50.936;6.908;2023-12-20T17:04:20;11.25;;;3.83;;
61096;SDS011;46977;50.936;6.908;2023-12-20T17:07:25;12.02;;;3.63;;
61096;SDS011;46977;50.936;6.908;2023-12-20T17:10:30;12.43;;;4.07;;
61096;SDS011;46977;50.936;6.908;2023-12-20T17:13:34;9.80;;;3.28;;
61096;SDS011;46977;50.936;6.908;2023-12-20T17:16:37;11.93;;;3.22;;
61096;SDS011;46977;50.936;6.908;2023-12-20T17:19:43;9.73;;;3.42;;
61096;SDS011;46977;50.936;6.908;2023-12-20T17:22:46;10.23;;;3.17;;
61096;SDS011;46977;50.936;6.908;2023-12-20T17:25:58;10.38;;;3.67;;
61096;SDS011;46977;50.936;6.908;2023-12-20T17:29:04;16.13;;;3.65;;
61096;SDS011;46977;50.936;6.908;2023-12-20T17:32:07;12.63;;;3.45;;
61096;SDS011;46977;50.936;6.908;2023-12-20T17:35:13;10.80;;;4.10;;
61096;SDS011;46977;50.936;6.908;2023-12-20T17:38:19;8.93;;;3.10;;
61096;SDS011;46977;50.936;6.908;2023-12-20T17:41:23;7.65;;;3.25;;
61096;SDS011;46977;50.936;6.908;2023-12-20T17:44:26;8.95;;;3.47;;
61096;SDS011;46977;50.936;6.908;2023-12-20T17:47:29;11.75;;;3.17;;
61096;SDS011;46977;50.936;6.908;2023-12-20T17:50:31;10.48;;;3.85;;
61096;SDS011;46977;50.936;6.908;2023-12-20T17:53:37;14.63;;;4.05;;
61096;SDS011;46977;50.936;6.908;2023-12-20T17:56:41;5.45;;;2.97;;
61096;SDS011;46977;50.936;6.908;2023-12-20T17:59:43;8.18;;;3.30;;
61096;SDS011;46977;50.936;6.908;2023-12-20T18:02:46;9.18;;;3.28;;
61096;SDS011;46977;50.936;6.908;2023-12-20T18:05:49;9.38;;;3.25;;
61096;SDS011;46977;50.936;6.908;2023-12-20T18:08:52;11.40;;;2.20;;
61096;SDS011;46977;50.936;6.908;2023-12-20T18:11:57;7.80;;;2.20;;
61096;SDS011;46977;50.936;6.908;2023-12-20T18:15:01;4.82;;;2.78;;
61096;SDS011;46977;50.936;6.908;2023-12-20T18:18:05;11.43;;;2.67;;
61096;SDS011;46977;50.936;6.908;2023-12-20T18:21:10;10.48;;;2.50;;